sensor_id;sensor_type;location;lat;lon;timestamp;pressure;altitude;pressure_sealevel;temperature;humidity
68380;BME280;57711;53.196;19.638;2023-02-13T00:00:32;101806.67;;;4.45;73.57
68380;BME280;57711;53.196;19.638;2023-02-13T00:03:18;101804.52;;;4.44;73.48
68380;BME280;57711;53.196;19.638;2023-02-13T00:05:45;101806.58;;;4.43;73.24
68380;BME280;57711;53.196;19.638;2023-02-13T00:08:12;101804.53;;;4.40;73.53
68380;BME280;57711;53.196;19.638;2023-02-13T00:10:40;101806.34;;;4.40;73.62
68380;BME280;57711;53.196;19.638;2023-02-13T00:13:07;101804.31;;;4.41;73.55
68380;BME280;57711;53.196;19.638;2023-02-13T00:15:34;101804.44;;;4.42;73.55
68380;BME280;57711;53.196;19.638;2023-02-13T00:18:01;101800.08;;;4.44;73.70
68380;BME280;57711;53.196;19.638;2023-02-13T00:20:29;101798.21;;;4.46;73.63
68380;BME280;57711;53.196;19.638;2023-02-13T00:22:57;101800.20;;;4.46;73.66
68380;BME280;57711;53.196;19.638;2023-02-13T00:25:25;101796.27;;;4.45;73.76
68380;BME280;57711;53.196;19.638;2023-02-13T00:27:52;101800.20;;;4.46;73.68
68380;BME280;57711;53.196;19.638;2023-02-13T00:30:20;101802.08;;;4.48;73.56
68380;BME280;57711;53.196;19.638;2023-02-13T00:32:49;101799.14;;;4.50;73.74
68380;BME280;57711;53.196;19.638;2023-02-13T00:35:17;101797.88;;;4.50;73.67
68380;BME280;57711;53.196;19.638;2023-02-13T00:37:44;101797.73;;;4.49;73.59
68380;BME280;57711;53.196;19.638;2023-02-13T00:40:11;101797.49;;;4.50;73.56
68380;BME280;57711;53.196;19.638;2023-02-13T00:42:38;101796.42;;;4.50;73.72
68380;BME280;57711;53.196;19.638;2023-02-13T00:45:06;101799.83;;;4.50;73.85
68380;BME280;57711;53.196;19.638;2023-02-13T00:47:33;101799.14;;;4.49;73.69
68380;BME280;57711;53.196;19.638;2023-02-13T00:50:00;101799.66;;;4.50;73.70
68380;BME280;57711;53.196;19.638;2023-02-13T00:52:28;101798.79;;;4.49;73.79
68380;BME280;57711;53.196;19.638;2023-02-13T00:54:55;101799.48;;;4.50;73.69
68380;BME280;57711;53.196;19.638;2023-02-13T00:57:22;101793.89;;;4.51;73.67
68380;BME280;57711;53.196;19.638;2023-02-13T00:59:49;101791.55;;;4.51;73.66
68380;BME280;57711;53.196;19.638;2023-02-13T01:02:17;101788.88;;;4.51;73.61
68380;BME280;57711;53.196;19.638;2023-02-13T01:04:44;101787.52;;;4.49;73.60
68380;BME280;57711;53.196;19.638;2023-02-13T01:07:12;101785.05;;;4.48;73.72
68380;BME280;57711;53.196;19.638;2023-02-13T01:09:43;101780.75;;;4.48;73.74
68380;BME280;57711;53.196;19.638;2023-02-13T01:12:10;101780.55;;;4.49;73.82
68380;BME280;57711;53.196;19.638;2023-02-13T01:14:37;101778.39;;;4.49;73.84
68380;BME280;57711;53.196;19.638;2023-02-13T01:17:04;101777.05;;;4.51;73.85
68380;BME280;57711;53.196;19.638;2023-02-13T01:19:32;101777.17;;;4.52;73.76
68380;BME280;57711;53.196;19.638;2023-02-13T01:21:59;101774.30;;;4.52;73.84
68380;BME280;57711;53.196;19.638;2023-02-13T01:24:26;101774.71;;;4.51;73.75
68380;BME280;57711;53.196;19.638;2023-02-13T01:26:57;101775.04;;;4.52;73.85
68380;BME280;57711;53.196;19.638;2023-02-13T01:29:24;101771.05;;;4.53;73.78
68380;BME280;57711;53.196;19.638;2023-02-13T01:31:51;101769.02;;;4.55;73.84
68380;BME280;57711;53.196;19.638;2023-02-13T01:34:19;101766.30;;;4.56;73.86
68380;BME280;57711;53.196;19.638;2023-02-13T01:36:46;101760.00;;;4.57;73.88
68380;BME280;57711;53.196;19.638;2023-02-13T01:39:13;101764.85;;;4.57;73.72
68380;BME280;57711;53.196;19.638;2023-02-13T01:41:41;101761.63;;;4.57;73.89
68380;BME280;57711;53.196;19.638;2023-02-13T01:47:12;101759.70;;;4.56;73.88
68380;BME280;57711;53.196;19.638;2023-02-13T01:49:43;101762.52;;;4.56;73.87
68380;BME280;57711;53.196;19.638;2023-02-13T01:52:12;101762.09;;;4.58;73.85
68380;BME280;57711;53.196;19.638;2023-02-13T01:54:40;101762.70;;;4.61;73.72
68380;BME280;57711;53.196;19.638;2023-02-13T01:57:17;101766.64;;;4.61;73.78
68380;BME280;57711;53.196;19.638;2023-02-13T01:59:50;101766.68;;;4.60;73.94
68380;BME280;57711;53.196;19.638;2023-02-13T02:02:19;101764.80;;;4.57;73.84
68380;BME280;57711;53.196;19.638;2023-02-13T02:04:47;101764.55;;;4.55;73.75
68380;BME280;57711;53.196;19.638;2023-02-13T02:07:23;101767.98;;;4.54;73.83
68380;BME280;57711;53.196;19.638;2023-02-13T02:09:55;101764.70;;;4.56;73.92
68380;BME280;57711;53.196;19.638;2023-02-13T02:15:05;101758.74;;;4.61;73.98
68380;BME280;57711;53.196;19.638;2023-02-13T02:17:32;101760.58;;;4.60;73.91
68380;BME280;57711;53.196;19.638;2023-02-13T02:30:57;101755.08;;;4.59;73.78
68380;BME280;57711;53.196;19.638;2023-02-13T02:36:40;101753.09;;;4.60;74.01
68380;BME280;57711;53.196;19.638;2023-02-13T02:39:29;101747.37;;;4.59;74.11
68380;BME280;57711;53.196;19.638;2023-02-13T02:47:33;101751.44;;;4.60;74.01
68380;BME280;57711;53.196;19.638;2023-02-13T02:53:17;101752.72;;;4.60;73.90
68380;BME280;57711;53.196;19.638;2023-02-13T02:55:54;101757.23;;;4.59;74.01
68380;BME280;57711;53.196;19.638;2023-02-13T02:58:27;101756.25;;;4.57;73.98
68380;BME280;57711;53.196;19.638;2023-02-13T03:01:22;101760.40;;;4.56;74.18
68380;BME280;57711;53.196;19.638;2023-02-13T03:04:35;101766.40;;;4.58;74.12
68380;BME280;57711;53.196;19.638;2023-02-13T03:07:21;101766.34;;;4.60;73.97
68380;BME280;57711;53.196;19.638;2023-02-13T03:09:52;101771.28;;;4.61;74.09
68380;BME280;57711;53.196;19.638;2023-02-13T03:12:46;101775.02;;;4.61;73.96
68380;BME280;57711;53.196;19.638;2023-02-13T03:15:35;101781.34;;;4.61;74.11
68380;BME280;57711;53.196;19.638;2023-02-13T03:18:23;101784.77;;;4.60;74.14
68380;BME280;57711;53.196;19.638;2023-02-13T03:21:15;101783.88;;;4.60;74.07
68380;BME280;57711;53.196;19.638;2023-02-13T03:24:08;101787.78;;;4.61;74.09
68380;BME280;57711;53.196;19.638;2023-02-13T03:26:46;101788.58;;;4.63;74.04
68380;BME280;57711;53.196;19.638;2023-02-13T03:35:31;101793.80;;;4.67;74.21
68380;BME280;57711;53.196;19.638;2023-02-13T03:38:33;101793.13;;;4.66;74.08
68380;BME280;57711;53.196;19.638;2023-02-13T03:41:07;101794.01;;;4.67;74.07
68380;BME280;57711;53.196;19.638;2023-02-13T03:43:59;101788.91;;;4.68;74.24
68380;BME280;57711;53.196;19.638;2023-02-13T03:46:34;101788.48;;;4.70;74.06
68380;BME280;57711;53.196;19.638;2023-02-13T03:49:03;101788.64;;;4.70;74.09
68380;BME280;57711;53.196;19.638;2023-02-13T03:51:56;101787.55;;;4.71;74.10
68380;BME280;57711;53.196;19.638;2023-02-13T03:57:23;101797.27;;;4.70;74.03
68380;BME280;57711;53.196;19.638;2023-02-13T04:00:15;101798.16;;;4.70;73.96
68380;BME280;57711;53.196;19.638;2023-02-13T04:03:13;101791.70;;;4.70;73.98
68380;BME280;57711;53.196;19.638;2023-02-13T04:05:46;101795.42;;;4.71;74.17
68380;BME280;57711;53.196;19.638;2023-02-13T04:08:15;101797.02;;;4.72;74.02
68380;BME280;57711;53.196;19.638;2023-02-13T04:10:52;101799.42;;;4.70;74.01
68380;BME280;57711;53.196;19.638;2023-02-13T04:13:38;101796.45;;;4.68;74.21
68380;BME280;57711;53.196;19.638;2023-02-13T04:16:09;101801.26;;;4.69;74.17
68380;BME280;57711;53.196;19.638;2023-02-13T04:18:38;101795.98;;;4.70;74.09
68380;BME280;57711;53.196;19.638;2023-02-13T04:21:06;101793.48;;;4.70;74.11
68380;BME280;57711;53.196;19.638;2023-02-13T04:23:34;101792.58;;;4.70;74.12
68380;BME280;57711;53.196;19.638;2023-02-13T04:26:07;101797.41;;;4.71;74.34
68380;BME280;57711;53.196;19.638;2023-02-13T04:28:35;101800.70;;;4.69;74.29
68380;BME280;57711;53.196;19.638;2023-02-13T04:31:02;101799.36;;;4.67;74.28
68380;BME280;57711;53.196;19.638;2023-02-13T04:33:29;101801.01;;;4.66;74.28
68380;BME280;57711;53.196;19.638;2023-02-13T04:35:56;101805.99;;;4.67;74.23
68380;BME280;57711;53.196;19.638;2023-02-13T04:38:23;101807.17;;;4.68;74.19
68380;BME280;57711;53.196;19.638;2023-02-13T04:40:50;101804.74;;;4.67;74.02
68380;BME280;57711;53.196;19.638;2023-02-13T04:43:18;101801.73;;;4.66;74.19
68380;BME280;57711;53.196;19.638;2023-02-13T04:45:48;101802.49;;;4.65;74.19
68380;BME280;57711;53.196;19.638;2023-02-13T04:48:16;101803.79;;;4.64;74.22
68380;BME280;57711;53.196;19.638;2023-02-13T04:50:43;101808.95;;;4.65;74.39
68380;BME280;57711;53.196;19.638;2023-02-13T04:53:10;101810.80;;;4.68;74.40
68380;BME280;57711;53.196;19.638;2023-02-13T04:55:37;101809.59;;;4.71;74.14
68380;BME280;57711;53.196;19.638;2023-02-13T04:58:04;101811.71;;;4.72;74.19
68380;BME280;57711;53.196;19.638;2023-02-13T05:00:31;101806.50;;;4.72;74.33
68380;BME280;57711;53.196;19.638;2023-02-13T05:03:09;101800.23;;;4.72;74.33
68380;BME280;57711;53.196;19.638;2023-02-13T05:05:38;101796.84;;;4.71;74.32
68380;BME280;57711;53.196;19.638;2023-02-13T05:08:07;101797.26;;;4.70;74.28
68380;BME280;57711;53.196;19.638;2023-02-13T05:10:34;101796.70;;;4.70;74.21
68380;BME280;57711;53.196;19.638;2023-02-13T05:13:02;101793.13;;;4.70;74.20
68380;BME280;57711;53.196;19.638;2023-02-13T05:15:29;101795.06;;;4.71;74.19
68380;BME280;57711;53.196;19.638;2023-02-13T05:17:56;101792.20;;;4.71;74.20
68380;BME280;57711;53.196;19.638;2023-02-13T05:20:24;101789.58;;;4.69;74.20
68380;BME280;57711;53.196;19.638;2023-02-13T05:22:52;101795.75;;;4.68;74.43
68380;BME280;57711;53.196;19.638;2023-02-13T05:25:40;101809.17;;;4.68;74.38
68380;BME280;57711;53.196;19.638;2023-02-13T05:28:08;101807.36;;;4.68;74.27
68380;BME280;57711;53.196;19.638;2023-02-13T05:30:55;101811.14;;;4.68;74.34
68380;BME280;57711;53.196;19.638;2023-02-13T05:33:23;101813.79;;;4.69;74.31
68380;BME280;57711;53.196;19.638;2023-02-13T05:35:50;101814.15;;;4.69;74.24
68380;BME280;57711;53.196;19.638;2023-02-13T05:38:17;101813.44;;;4.69;74.42
68380;BME280;57711;53.196;19.638;2023-02-13T05:40:45;101816.14;;;4.69;74.41
68380;BME280;57711;53.196;19.638;2023-02-13T05:43:12;101817.70;;;4.70;74.45
68380;BME280;57711;53.196;19.638;2023-02-13T05:45:39;101812.81;;;4.71;74.31
68380;BME280;57711;53.196;19.638;2023-02-13T05:48:06;101812.41;;;4.72;74.43
68380;BME280;57711;53.196;19.638;2023-02-13T05:50:33;101810.56;;;4.73;74.34
68380;BME280;57711;53.196;19.638;2023-02-13T05:53:00;101812.92;;;4.73;74.33
68380;BME280;57711;53.196;19.638;2023-02-13T05:55:27;101816.55;;;4.71;74.41
68380;BME280;57711;53.196;19.638;2023-02-13T05:57:56;101817.17;;;4.70;74.42
68380;BME280;57711;53.196;19.638;2023-02-13T06:00:24;101816.30;;;4.69;74.35
68380;BME280;57711;53.196;19.638;2023-02-13T06:02:51;101818.25;;;4.69;74.45
68380;BME280;57711;53.196;19.638;2023-02-13T06:05:18;101818.34;;;4.71;74.42
68380;BME280;57711;53.196;19.638;2023-02-13T06:07:45;101814.14;;;4.74;74.38
68380;BME280;57711;53.196;19.638;2023-02-13T06:10:12;101814.60;;;4.76;74.41
68380;BME280;57711;53.196;19.638;2023-02-13T06:12:41;101815.65;;;4.76;74.36
68380;BME280;57711;53.196;19.638;2023-02-13T06:15:08;101811.89;;;4.77;74.55
68380;BME280;57711;53.196;19.638;2023-02-13T06:17:36;101816.97;;;4.75;74.44
68380;BME280;57711;53.196;19.638;2023-02-13T06:20:03;101820.57;;;4.74;74.32
68380;BME280;57711;53.196;19.638;2023-02-13T06:22:30;101811.53;;;4.76;74.42
68380;BME280;57711;53.196;19.638;2023-02-13T06:24:57;101807.05;;;4.76;74.29
68380;BME280;57711;53.196;19.638;2023-02-13T06:27:24;101814.02;;;4.77;74.28
68380;BME280;57711;53.196;19.638;2023-02-13T06:29:52;101814.43;;;4.76;74.38
68380;BME280;57711;53.196;19.638;2023-02-13T06:32:19;101806.08;;;4.74;74.41
68380;BME280;57711;53.196;19.638;2023-02-13T06:34:46;101806.09;;;4.73;74.33
68380;BME280;57711;53.196;19.638;2023-02-13T06:37:13;101810.95;;;4.73;74.41
68380;BME280;57711;53.196;19.638;2023-02-13T06:39:40;101810.58;;;4.73;74.27
68380;BME280;57711;53.196;19.638;2023-02-13T06:42:08;101808.20;;;4.74;74.34
68380;BME280;57711;53.196;19.638;2023-02-13T06:44:35;101803.04;;;4.74;74.39
68380;BME280;57711;53.196;19.638;2023-02-13T06:47:02;101801.44;;;4.73;74.25
68380;BME280;57711;53.196;19.638;2023-02-13T06:49:29;101800.73;;;4.73;74.35
68380;BME280;57711;53.196;19.638;2023-02-13T06:51:57;101803.22;;;4.73;74.36
68380;BME280;57711;53.196;19.638;2023-02-13T06:54:24;101803.70;;;4.75;74.50
68380;BME280;57711;53.196;19.638;2023-02-13T06:57:11;101804.70;;;4.77;74.42
68380;BME280;57711;53.196;19.638;2023-02-13T06:59:38;101808.27;;;4.77;74.25
68380;BME280;57711;53.196;19.638;2023-02-13T07:02:05;101808.98;;;4.77;74.28
68380;BME280;57711;53.196;19.638;2023-02-13T07:04:32;101805.25;;;4.77;74.42
68380;BME280;57711;53.196;19.638;2023-02-13T07:06:59;101808.80;;;4.77;74.40
68380;BME280;57711;53.196;19.638;2023-02-13T07:09:26;101813.52;;;4.76;74.37
68380;BME280;57711;53.196;19.638;2023-02-13T07:11:54;101816.58;;;4.76;74.23
68380;BME280;57711;53.196;19.638;2023-02-13T07:14:21;101823.33;;;4.77;74.38
68380;BME280;57711;53.196;19.638;2023-02-13T07:16:48;101820.96;;;4.78;74.33
68380;BME280;57711;53.196;19.638;2023-02-13T07:19:15;101820.92;;;4.79;74.40
68380;BME280;57711;53.196;19.638;2023-02-13T07:21:42;101816.98;;;4.79;74.48
68380;BME280;57711;53.196;19.638;2023-02-13T07:24:09;101813.23;;;4.78;74.32
68380;BME280;57711;53.196;19.638;2023-02-13T07:26:36;101815.33;;;4.80;74.40
68380;BME280;57711;53.196;19.638;2023-02-13T07:29:04;101813.81;;;4.82;74.40
68380;BME280;57711;53.196;19.638;2023-02-13T07:31:38;101809.48;;;4.83;74.31
68380;BME280;57711;53.196;19.638;2023-02-13T07:34:06;101810.02;;;4.83;74.30
68380;BME280;57711;53.196;19.638;2023-02-13T07:36:33;101815.61;;;4.82;74.41
68380;BME280;57711;53.196;19.638;2023-02-13T07:39:00;101820.66;;;4.81;74.36
68380;BME280;57711;53.196;19.638;2023-02-13T07:41:27;101818.90;;;4.80;74.45
68380;BME280;57711;53.196;19.638;2023-02-13T07:43:55;101819.78;;;4.80;74.45
68380;BME280;57711;53.196;19.638;2023-02-13T07:46:22;101820.45;;;4.82;74.43
68380;BME280;57711;53.196;19.638;2023-02-13T07:48:52;101817.32;;;4.84;74.30
68380;BME280;57711;53.196;19.638;2023-02-13T07:51:19;101810.35;;;4.83;74.42
68380;BME280;57711;53.196;19.638;2023-02-13T07:53:51;101816.10;;;4.83;74.39
68380;BME280;57711;53.196;19.638;2023-02-13T07:56:22;101814.63;;;4.84;74.32
68380;BME280;57711;53.196;19.638;2023-02-13T07:58:49;101805.48;;;4.84;74.42
68380;BME280;57711;53.196;19.638;2023-02-13T08:01:16;101801.62;;;4.86;74.29
68380;BME280;57711;53.196;19.638;2023-02-13T08:03:47;101801.19;;;4.88;74.32
68380;BME280;57711;53.196;19.638;2023-02-13T08:06:17;101802.95;;;4.89;74.34
68380;BME280;57711;53.196;19.638;2023-02-13T08:08:45;101806.34;;;4.89;74.31
68380;BME280;57711;53.196;19.638;2023-02-13T08:11:23;101802.59;;;4.89;74.22
68380;BME280;57711;53.196;19.638;2023-02-13T08:14:11;101797.23;;;4.88;74.44
68380;BME280;57711;53.196;19.638;2023-02-13T08:16:38;101790.27;;;4.88;74.38
68380;BME280;57711;53.196;19.638;2023-02-13T08:19:05;101792.14;;;4.90;74.45
68380;BME280;57711;53.196;19.638;2023-02-13T08:21:32;101787.94;;;4.93;74.28
68380;BME280;57711;53.196;19.638;2023-02-13T08:24:01;101784.59;;;4.96;74.32
68380;BME280;57711;53.196;19.638;2023-02-13T08:26:30;101782.77;;;4.96;74.28
68380;BME280;57711;53.196;19.638;2023-02-13T08:28:57;101784.50;;;4.98;74.36
68380;BME280;57711;53.196;19.638;2023-02-13T08:31:25;101781.39;;;4.99;74.51
68380;BME280;57711;53.196;19.638;2023-02-13T08:33:55;101784.21;;;5.00;74.39
68380;BME280;57711;53.196;19.638;2023-02-13T08:36:23;101784.95;;;5.00;74.21
68380;BME280;57711;53.196;19.638;2023-02-13T08:38:50;101782.91;;;5.01;74.25
68380;BME280;57711;53.196;19.638;2023-02-13T08:41:17;101781.84;;;5.01;74.36
68380;BME280;57711;53.196;19.638;2023-02-13T08:43:50;101788.07;;;5.02;74.32
68380;BME280;57711;53.196;19.638;2023-02-13T08:46:18;101785.95;;;5.02;74.38
68380;BME280;57711;53.196;19.638;2023-02-13T08:48:45;101784.52;;;5.01;74.26
68380;BME280;57711;53.196;19.638;2023-02-13T08:51:13;101780.73;;;5.02;74.37
68380;BME280;57711;53.196;19.638;2023-02-13T08:53:40;101779.18;;;5.05;74.37
68380;BME280;57711;53.196;19.638;2023-02-13T08:56:08;101782.83;;;5.07;74.30
68380;BME280;57711;53.196;19.638;2023-02-13T08:58:36;101786.92;;;5.08;74.35
68380;BME280;57711;53.196;19.638;2023-02-13T09:01:05;101781.75;;;5.08;74.36
68380;BME280;57711;53.196;19.638;2023-02-13T09:03:33;101778.96;;;5.06;74.35
68380;BME280;57711;53.196;19.638;2023-02-13T09:06:01;101777.11;;;5.07;74.46
68380;BME280;57711;53.196;19.638;2023-02-13T09:08:29;101777.56;;;5.09;74.23
68380;BME280;57711;53.196;19.638;2023-02-13T09:11:00;101777.83;;;5.12;74.25
68380;BME280;57711;53.196;19.638;2023-02-13T09:13:29;101785.59;;;5.14;74.34
68380;BME280;57711;53.196;19.638;2023-02-13T09:15:59;101790.78;;;5.15;74.38
68380;BME280;57711;53.196;19.638;2023-02-13T09:18:27;101791.90;;;5.14;74.40
68380;BME280;57711;53.196;19.638;2023-02-13T09:21:03;101798.15;;;5.14;74.31
68380;BME280;57711;53.196;19.638;2023-02-13T09:23:33;101797.38;;;5.16;74.39
68380;BME280;57711;53.196;19.638;2023-02-13T09:26:03;101790.29;;;5.18;74.42
68380;BME280;57711;53.196;19.638;2023-02-13T09:28:32;101786.96;;;5.20;74.31
68380;BME280;57711;53.196;19.638;2023-02-13T09:31:14;101785.60;;;5.18;74.18
68380;BME280;57711;53.196;19.638;2023-02-13T09:33:46;101785.44;;;5.18;74.39
68380;BME280;57711;53.196;19.638;2023-02-13T09:36:16;101782.54;;;5.19;74.36
68380;BME280;57711;53.196;19.638;2023-02-13T09:38:47;101780.27;;;5.21;74.29
68380;BME280;57711;53.196;19.638;2023-02-13T09:41:29;101781.45;;;5.23;74.29
68380;BME280;57711;53.196;19.638;2023-02-13T09:44:01;101782.27;;;5.25;74.34
68380;BME280;57711;53.196;19.638;2023-02-13T09:49:13;101783.50;;;5.26;74.31
68380;BME280;57711;53.196;19.638;2023-02-13T09:51:43;101780.95;;;5.27;74.38
68380;BME280;57711;53.196;19.638;2023-02-13T09:54:15;101776.92;;;5.28;74.40
68380;BME280;57711;53.196;19.638;2023-02-13T09:57:02;101776.09;;;5.32;74.34
68380;BME280;57711;53.196;19.638;2023-02-13T10:02:52;101780.71;;;5.36;74.37
68380;BME280;57711;53.196;19.638;2023-02-13T10:13:53;101779.59;;;5.46;74.26
68380;BME280;57711;53.196;19.638;2023-02-13T10:16:35;101777.79;;;5.46;74.43
68380;BME280;57711;53.196;19.638;2023-02-13T10:21:50;101773.54;;;5.53;74.59
68380;BME280;57711;53.196;19.638;2023-02-13T10:35:26;101776.55;;;5.66;74.48
68380;BME280;57711;53.196;19.638;2023-02-13T10:37:57;101776.31;;;5.67;74.48
68380;BME280;57711;53.196;19.638;2023-02-13T10:40:32;101769.00;;;5.71;74.47
68380;BME280;57711;53.196;19.638;2023-02-13T10:45:53;101759.64;;;5.75;74.43
68380;BME280;57711;53.196;19.638;2023-02-13T10:48:51;101758.13;;;5.77;74.57
68380;BME280;57711;53.196;19.638;2023-02-13T10:51:29;101754.63;;;5.79;74.42
68380;BME280;57711;53.196;19.638;2023-02-13T10:54:20;101747.36;;;5.81;74.57
68380;BME280;57711;53.196;19.638;2023-02-13T10:59:41;101738.48;;;5.86;74.28
68380;BME280;57711;53.196;19.638;2023-02-13T11:02:22;101732.55;;;5.86;74.33
68380;BME280;57711;53.196;19.638;2023-02-13T11:05:47;101726.86;;;5.86;74.49
68380;BME280;57711;53.196;19.638;2023-02-13T11:08:21;101727.90;;;5.86;74.43
68380;BME280;57711;53.196;19.638;2023-02-13T11:10:50;101730.88;;;5.88;74.37
68380;BME280;57711;53.196;19.638;2023-02-13T11:13:23;101734.73;;;5.90;74.27
68380;BME280;57711;53.196;19.638;2023-02-13T11:15:57;101733.71;;;5.93;74.17
68380;BME280;57711;53.196;19.638;2023-02-13T11:18:29;101736.27;;;5.96;74.43
68380;BME280;57711;53.196;19.638;2023-02-13T11:21:04;101734.77;;;5.97;74.35
68380;BME280;57711;53.196;19.638;2023-02-13T11:23:40;101735.60;;;5.99;74.33
68380;BME280;57711;53.196;19.638;2023-02-13T11:26:10;101736.09;;;6.00;74.29
68380;BME280;57711;53.196;19.638;2023-02-13T11:28:52;101730.60;;;6.02;74.28
68380;BME280;57711;53.196;19.638;2023-02-13T11:31:26;101725.66;;;6.04;74.23
68380;BME280;57711;53.196;19.638;2023-02-13T11:33:56;101728.45;;;6.07;74.30
68380;BME280;57711;53.196;19.638;2023-02-13T11:36:30;101723.35;;;6.08;74.13
68380;BME280;57711;53.196;19.638;2023-02-13T11:39:04;101723.25;;;6.10;74.19
68380;BME280;57711;53.196;19.638;2023-02-13T11:41:41;101722.95;;;6.13;74.48
68380;BME280;57711;53.196;19.638;2023-02-13T11:44:29;101722.83;;;6.15;74.26
68380;BME280;57711;53.196;19.638;2023-02-13T11:46:59;101721.86;;;6.17;74.14
68380;BME280;57711;53.196;19.638;2023-02-13T11:49:30;101720.55;;;6.18;74.26
68380;BME280;57711;53.196;19.638;2023-02-13T11:52:03;101719.73;;;6.20;74.21
68380;BME280;57711;53.196;19.638;2023-02-13T11:54:44;101716.66;;;6.20;74.13
68380;BME280;57711;53.196;19.638;2023-02-13T11:57:19;101716.48;;;6.20;74.23
68380;BME280;57711;53.196;19.638;2023-02-13T11:59:48;101708.59;;;6.20;74.07
68380;BME280;57711;53.196;19.638;2023-02-13T12:04:43;101710.38;;;6.28;74.15
68380;BME280;57711;53.196;19.638;2023-02-13T12:07:31;101710.85;;;6.33;74.32
68380;BME280;57711;53.196;19.638;2023-02-13T12:10:04;101698.26;;;6.37;74.41
68380;BME280;57711;53.196;19.638;2023-02-13T12:12:39;101693.00;;;6.41;74.35
68380;BME280;57711;53.196;19.638;2023-02-13T12:15:17;101688.55;;;6.44;74.31
68380;BME280;57711;53.196;19.638;2023-02-13T12:17:46;101682.39;;;6.46;74.26
68380;BME280;57711;53.196;19.638;2023-02-13T12:20:17;101679.52;;;6.49;74.23
68380;BME280;57711;53.196;19.638;2023-02-13T12:23:20;101676.91;;;6.54;74.25
68380;BME280;57711;53.196;19.638;2023-02-13T12:28:31;101667.83;;;6.68;74.34
68380;BME280;57711;53.196;19.638;2023-02-13T12:39:38;101673.15;;;6.83;74.20
68380;BME280;57711;53.196;19.638;2023-02-13T12:47:41;101663.83;;;6.71;74.10
68380;BME280;57711;53.196;19.638;2023-02-13T13:03:51;101648.95;;;6.56;73.96
68380;BME280;57711;53.196;19.638;2023-02-13T13:06:37;101646.20;;;6.54;74.01
68380;BME280;57711;53.196;19.638;2023-02-13T13:14:24;101652.04;;;6.49;73.85
68380;BME280;57711;53.196;19.638;2023-02-13T13:17:19;101646.13;;;6.48;73.81
68380;BME280;57711;53.196;19.638;2023-02-13T13:20:14;101644.58;;;6.47;73.83
68380;BME280;57711;53.196;19.638;2023-02-13T13:22:54;101640.97;;;6.44;73.76
68380;BME280;57711;53.196;19.638;2023-02-13T13:27:58;101649.73;;;6.41;73.76
68380;BME280;57711;53.196;19.638;2023-02-13T13:30:34;101657.27;;;6.41;73.79
68380;BME280;57711;53.196;19.638;2023-02-13T13:33:20;101658.10;;;6.42;73.79
68380;BME280;57711;53.196;19.638;2023-02-13T13:43:59;101645.46;;;6.40;73.72
68380;BME280;57711;53.196;19.638;2023-02-13T13:49:35;101636.16;;;6.35;73.55
68380;BME280;57711;53.196;19.638;2023-02-13T13:54:46;101653.38;;;6.36;73.61
68380;BME280;57711;53.196;19.638;2023-02-13T13:57:24;101654.06;;;6.37;73.71
68380;BME280;57711;53.196;19.638;2023-02-13T13:59:58;101644.80;;;6.35;73.54
68380;BME280;57711;53.196;19.638;2023-02-13T14:02:35;101642.63;;;6.36;73.70
68380;BME280;57711;53.196;19.638;2023-02-13T14:05:30;101649.09;;;6.36;73.66
68380;BME280;57711;53.196;19.638;2023-02-13T14:08:00;101652.89;;;6.35;73.72
68380;BME280;57711;53.196;19.638;2023-02-13T14:34:06;101635.53;;;6.26;73.55
68380;BME280;57711;53.196;19.638;2023-02-13T14:36:37;101630.36;;;6.26;73.42
68380;BME280;57711;53.196;19.638;2023-02-13T14:41:59;101623.25;;;6.24;73.57
68380;BME280;57711;53.196;19.638;2023-02-13T14:44:48;101638.60;;;6.22;73.47
68380;BME280;57711;53.196;19.638;2023-02-13T14:47:22;101640.96;;;6.22;73.33
68380;BME280;57711;53.196;19.638;2023-02-13T14:49:50;101629.67;;;6.21;73.37
68380;BME280;57711;53.196;19.638;2023-02-13T14:52:22;101624.78;;;6.18;73.43
68380;BME280;57711;53.196;19.638;2023-02-13T14:55:03;101615.30;;;6.14;73.28
68380;BME280;57711;53.196;19.638;2023-02-13T14:57:33;101609.94;;;6.10;73.48
68380;BME280;57711;53.196;19.638;2023-02-13T15:02:45;101607.75;;;6.03;73.28
68380;BME280;57711;53.196;19.638;2023-02-13T15:05:16;101603.77;;;6.00;73.27
68380;BME280;57711;53.196;19.638;2023-02-13T15:07:52;101609.41;;;5.98;73.25
68380;BME280;57711;53.196;19.638;2023-02-13T15:15:52;101621.94;;;5.91;73.18
68380;BME280;57711;53.196;19.638;2023-02-13T15:18:25;101616.95;;;5.90;73.23
68380;BME280;57711;53.196;19.638;2023-02-13T15:20:55;101630.58;;;5.91;73.38
68380;BME280;57711;53.196;19.638;2023-02-13T15:23:30;101643.65;;;5.88;73.13
68380;BME280;57711;53.196;19.638;2023-02-13T15:26:05;101641.11;;;5.84;73.23
68380;BME280;57711;53.196;19.638;2023-02-13T15:28:34;101642.80;;;5.83;73.21
68380;BME280;57711;53.196;19.638;2023-02-13T15:31:03;101636.38;;;5.82;73.05
68380;BME280;57711;53.196;19.638;2023-02-13T15:36:03;101635.98;;;5.79;73.32
68380;BME280;57711;53.196;19.638;2023-02-13T15:38:35;101634.73;;;5.75;73.15
68380;BME280;57711;53.196;19.638;2023-02-13T15:41:06;101614.91;;;5.73;73.00
68380;BME280;57711;53.196;19.638;2023-02-13T15:43:46;101612.94;;;5.73;73.09
68380;BME280;57711;53.196;19.638;2023-02-13T15:46:31;101614.55;;;5.73;73.13
68380;BME280;57711;53.196;19.638;2023-02-13T15:49:14;101617.45;;;5.73;73.09
68380;BME280;57711;53.196;19.638;2023-02-13T15:51:42;101619.56;;;5.69;73.06
68380;BME280;57711;53.196;19.638;2023-02-13T15:54:31;101618.26;;;5.66;73.11
68380;BME280;57711;53.196;19.638;2023-02-13T15:57:04;101622.10;;;5.65;73.01
68380;BME280;57711;53.196;19.638;2023-02-13T15:59:37;101625.11;;;5.65;73.08